createdAt,value
2022-11-22T00:00:55.582Z,97697.84
2022-11-22T00:02:53.636Z,97695.66
2022-11-22T00:04:51.674Z,97702.97
2022-11-22T00:06:49.646Z,97700.75
2022-11-22T00:08:48.438Z,97694.94
2022-11-22T00:10:46.494Z,97700.78
2022-11-22T00:12:44.514Z,97705.19
2022-11-22T00:14:42.705Z,97703.72
2022-11-22T00:16:40.850Z,97708.84
2022-11-22T00:18:38.894Z,97707.38
2022-11-22T00:20:37.206Z,97708.09
2022-11-22T00:22:39.728Z,97709.56
2022-11-22T00:24:40.940Z,97708.88
2022-11-22T00:26:38.973Z,97709.59
2022-11-22T00:28:37.036Z,97713.97
2022-11-22T00:30:35.074Z,97719.81
2022-11-22T00:32:33.036Z,97726.41
2022-11-22T00:34:31.006Z,97714.72
2022-11-22T00:36:29.050Z,97708.16
2022-11-22T00:38:27.132Z,97712.53
2022-11-22T00:40:25.209Z,97723.47
2022-11-22T00:42:23.244Z,97730.81
2022-11-22T00:44:21.286Z,97728.63
2022-11-22T00:46:19.275Z,97730.06
2022-11-22T00:48:17.291Z,97725.69
2022-11-22T00:50:15.336Z,97731.56
2022-11-22T00:52:13.326Z,97737.41
2022-11-22T00:54:11.348Z,97743.22
2022-11-22T00:56:09.349Z,97735.19
2022-11-22T00:58:07.393Z,97736.66
2022-11-22T01:00:05.406Z,97736.66
2022-11-22T01:02:03.686Z,97751.28
2022-11-22T01:04:01.652Z,97752.75
2022-11-22T01:05:59.688Z,97757.13
2022-11-22T01:07:57.663Z,97753.47
2022-11-22T01:09:55.656Z,97752.72
2022-11-22T01:11:53.851Z,97752.72
2022-11-22T01:13:51.931Z,97764.41
2022-11-22T01:15:50.117Z,97764.44
2022-11-22T01:17:48.442Z,97760.78
2022-11-22T01:19:46.456Z,97764.44
2022-11-22T01:21:44.803Z,97760.06
2022-11-22T01:23:43.146Z,97763.69
2022-11-22T01:25:41.205Z,97775.38
2022-11-22T01:27:39.167Z,97775.38
2022-11-22T01:29:37.477Z,97773.94
2022-11-22T01:31:35.555Z,97782.69
2022-11-22T01:33:33.573Z,97784.88
2022-11-22T01:35:31.649Z,97794.34
2022-11-22T01:37:29.661Z,97795.09
2022-11-22T01:39:28.379Z,97800.19
2022-11-22T01:41:26.557Z,97795.81
2022-11-22T01:43:24.662Z,97801.66
2022-11-22T01:45:22.685Z,97800.22
2022-11-22T01:47:20.727Z,97803.84
2022-11-22T01:49:18.763Z,97808.97
2022-11-22T01:51:16.996Z,97802.41
2022-11-22T01:53:14.961Z,97807.50
2022-11-22T01:55:13.009Z,97808.22
2022-11-22T01:57:11.054Z,97811.16
2022-11-22T01:59:09.062Z,97813.34
2022-11-22T02:01:07.168Z,97815.53
2022-11-22T02:03:05.276Z,97818.47
2022-11-22T02:05:03.355Z,97808.97
2022-11-22T02:07:01.912Z,97807.50
2022-11-22T02:08:59.924Z,97805.31
2022-11-22T02:10:57.989Z,97811.88
2022-11-22T02:12:56.126Z,97817.72
2022-11-22T02:14:54.455Z,97819.91
2022-11-22T02:16:52.544Z,97818.44
2022-11-22T02:18:50.606Z,97818.47
2022-11-22T02:20:48.889Z,97822.81
2022-11-22T02:22:47.109Z,97835.25
2022-11-22T02:24:45.377Z,97823.56
2022-11-22T02:26:43.421Z,97830.88
2022-11-22T02:28:41.414Z,97839.63
2022-11-22T02:30:39.578Z,97842.53
2022-11-22T02:32:37.627Z,97847.63
2022-11-22T02:34:35.873Z,97854.22
2022-11-22T02:36:35.050Z,97862.22
2022-11-22T02:38:33.046Z,97854.97
2022-11-22T02:40:31.155Z,97855.66
2022-11-22T02:42:29.209Z,97860.06
2022-11-22T02:44:27.378Z,97851.31
2022-11-22T02:46:25.424Z,97849.84
2022-11-22T02:48:23.475Z,97852.75
2022-11-22T02:50:21.794Z,97854.91
2022-11-22T02:52:19.798Z,97852.00
2022-11-22T02:54:18.070Z,97848.34
2022-11-22T02:56:16.237Z,97857.09
2022-11-22T02:58:14.514Z,97865.84
2022-11-22T03:00:12.581Z,97860.78
2022-11-22T03:02:10.548Z,97866.59
2022-11-22T03:04:08.788Z,97863.69
2022-11-22T03:06:07.001Z,97856.38
2022-11-22T03:08:04.972Z,97857.13
2022-11-22T03:10:03.091Z,97855.66
2022-11-22T03:12:01.342Z,97848.38
2022-11-22T03:13:59.394Z,97846.91
2022-11-22T03:15:57.489Z,97842.53
2022-11-22T03:17:55.462Z,97842.53
2022-11-22T03:19:53.440Z,97846.94
2022-11-22T03:21:51.524Z,97849.84
2022-11-22T03:23:49.752Z,97849.84
2022-11-22T03:25:47.726Z,97849.13
2022-11-22T03:27:45.758Z,97860.06
2022-11-22T03:29:43.772Z,97857.88
2022-11-22T03:31:41.861Z,97857.88
2022-11-22T03:33:39.787Z,97862.22
2022-11-22T03:35:37.892Z,97854.94
2022-11-22T03:37:35.977Z,97851.31
2022-11-22T03:39:33.970Z,97855.66
2022-11-22T03:41:32.073Z,97859.31
2022-11-22T03:43:32.652Z,97854.22
2022-11-22T03:45:30.678Z,97855.66
2022-11-22T03:47:28.682Z,97854.22
2022-11-22T03:49:26.730Z,97854.97
2022-11-22T03:51:24.965Z,97856.41
2022-11-22T03:53:23.320Z,97861.53
2022-11-22T03:55:21.285Z,97864.44
2022-11-22T03:57:19.303Z,97860.03
2022-11-22T03:59:17.361Z,97867.34
2022-11-22T04:01:16.960Z,97860.03
2022-11-22T04:03:15.082Z,97866.59
2022-11-22T04:05:13.260Z,97866.59
2022-11-22T04:07:11.676Z,97880.47
2022-11-22T04:09:09.840Z,97867.34
2022-11-22T04:11:07.954Z,97871.69
2022-11-22T04:13:06.020Z,97868.06
2022-11-22T04:15:09.280Z,97870.97
2022-11-22T04:17:07.570Z,97869.53
2022-11-22T04:19:05.600Z,97880.47
2022-11-22T04:21:21.607Z,97870.22
2022-11-22T04:23:19.684Z,97867.31
2022-11-22T04:25:16.733Z,97868.78
2022-11-22T04:27:14.946Z,97870.22
2022-11-22T04:29:12.995Z,97868.78
2022-11-22T04:31:25.248Z,97867.31
2022-11-22T04:33:23.362Z,97862.94
2022-11-22T04:35:21.455Z,97863.66
2022-11-22T04:37:19.413Z,97878.25
2022-11-22T04:39:17.452Z,97881.19
2022-11-22T04:41:15.713Z,97876.09
2022-11-22T04:43:31.498Z,97879.03
2022-11-22T04:45:28.529Z,97878.97
2022-11-22T04:47:50.628Z,97873.88
2022-11-22T04:49:48.888Z,97879.72
2022-11-22T04:52:04.512Z,97881.19
2022-11-22T04:54:02.515Z,97877.53
2022-11-22T04:56:00.685Z,97878.97
2022-11-22T04:58:00.204Z,97872.44
2022-11-22T04:59:58.546Z,97877.53
2022-11-22T05:01:56.587Z,97876.81
2022-11-22T05:03:54.579Z,97884.81
2022-11-22T05:05:52.581Z,97886.28
2022-11-22T05:07:50.913Z,97876.81
2022-11-22T05:09:49.014Z,97888.47
2022-11-22T05:11:47.081Z,97889.19
2022-11-22T05:13:45.347Z,97900.16
2022-11-22T05:15:43.317Z,97892.13
2022-11-22T05:17:41.315Z,97895.03
2022-11-22T05:19:39.305Z,97894.31
2022-11-22T05:21:37.525Z,97886.31
2022-11-22T05:23:52.534Z,97892.13
2022-11-22T05:25:50.557Z,97889.22
2022-11-22T05:27:48.622Z,97892.88
2022-11-22T05:29:46.802Z,97887.03
2022-11-22T05:31:50.992Z,97894.31
2022-11-22T05:33:49.709Z,97890.66
2022-11-22T05:35:47.868Z,97894.31
2022-11-22T05:37:45.972Z,97894.34
2022-11-22T05:39:44.116Z,97897.97
2022-11-22T05:41:56.243Z,97894.31
2022-11-22T05:43:54.290Z,97905.25
2022-11-22T05:45:52.481Z,97908.91
2022-11-22T05:47:50.551Z,97913.28
2022-11-22T05:49:48.641Z,97919.13
2022-11-22T05:51:46.868Z,97916.94
2022-11-22T05:53:44.914Z,97919.84
2022-11-22T05:55:42.944Z,97919.84
2022-11-22T05:57:40.990Z,97923.50
2022-11-22T05:59:43.977Z,97924.22
2022-11-22T06:01:42.492Z,97928.56
2022-11-22T06:03:40.837Z,97930.78
2022-11-22T06:05:38.865Z,97930.78
2022-11-22T06:07:36.954Z,97930.03
2022-11-22T06:09:35.025Z,97941.72
2022-11-22T06:11:33.557Z,97928.63
2022-11-22T06:13:31.612Z,97931.53
2022-11-22T06:15:29.771Z,97932.25
2022-11-22T06:17:27.796Z,97933.69
2022-11-22T06:19:25.815Z,97930.03
2022-11-22T06:21:24.347Z,97928.63
2022-11-22T06:23:22.599Z,97938.78
2022-11-22T06:25:20.617Z,97938.78
2022-11-22T06:27:18.880Z,97941.72
2022-11-22T06:29:17.247Z,97942.44
2022-11-22T06:31:15.334Z,97951.19
2022-11-22T06:33:13.386Z,97946.81
2022-11-22T06:35:11.381Z,97946.81
2022-11-22T06:37:09.444Z,97945.34
2022-11-22T06:39:07.450Z,97944.63
2022-11-22T06:41:05.512Z,97956.31
2022-11-22T06:43:03.529Z,97956.31
2022-11-22T06:45:01.585Z,97972.34
2022-11-22T06:46:59.615Z,97974.53
2022-11-22T06:48:57.690Z,97981.09
2022-11-22T06:50:55.906Z,97978.19
2022-11-22T06:52:53.930Z,97984.03
2022-11-22T06:54:52.380Z,98002.22
2022-11-22T06:56:50.578Z,97994.22
2022-11-22T06:58:48.663Z,97993.50
2022-11-22T07:00:46.719Z,98007.34
2022-11-22T07:02:44.883Z,97996.41
2022-11-22T07:05:02.371Z,97998.59
2022-11-22T07:07:00.950Z,98006.63
2022-11-22T07:08:58.952Z,97999.34
2022-11-22T07:10:56.951Z,98019.03
2022-11-22T07:12:55.132Z,98011.00
2022-11-22T07:14:53.134Z,98012.44
2022-11-22T07:16:51.212Z,98021.94
2022-11-22T07:18:49.321Z,98027.06
2022-11-22T07:20:47.767Z,98031.41
2022-11-22T07:22:45.998Z,98029.25
2022-11-22T07:24:44.349Z,98030.69
2022-11-22T07:26:42.396Z,98019.06
2022-11-22T07:28:40.843Z,98017.59
2022-11-22T07:30:43.809Z,98024.13
2022-11-22T07:32:42.275Z,98031.47
2022-11-22T07:34:40.237Z,98035.09
2022-11-22T07:36:38.518Z,98044.56
2022-11-22T07:38:36.491Z,98054.06
2022-11-22T07:40:34.735Z,98056.25
2022-11-22T07:42:32.789Z,98062.06
2022-11-22T07:44:30.778Z,98070.09
2022-11-22T07:46:31.337Z,98074.47
2022-11-22T07:48:29.791Z,98073.75
2022-11-22T07:50:27.858Z,98071.56
2022-11-22T07:52:26.051Z,98078.09
2022-11-22T07:54:24.067Z,98080.28
2022-11-22T07:56:22.148Z,98075.19
2022-11-22T07:58:20.387Z,98065.69
2022-11-22T08:00:18.507Z,98065.69
2022-11-22T08:02:16.577Z,98067.88
2022-11-22T08:04:14.631Z,98068.59
2022-11-22T08:06:12.637Z,98077.34
2022-11-22T08:08:10.602Z,98073.69
2022-11-22T08:10:08.645Z,98064.19
2022-11-22T08:12:06.683Z,98071.50
2022-11-22T08:14:04.658Z,98064.19
2022-11-22T08:16:05.545Z,98071.50
2022-11-22T08:18:04.067Z,98068.56
2022-11-22T08:20:02.030Z,98064.91
2022-11-22T08:22:00.029Z,98066.38
2022-11-22T08:23:58.259Z,98075.84
2022-11-22T08:25:56.531Z,98073.66
2022-11-22T08:27:54.532Z,98071.44
2022-11-22T08:29:52.553Z,98069.25
2022-11-22T08:31:50.553Z,98075.09
2022-11-22T08:33:48.796Z,98075.84
2022-11-22T08:35:46.832Z,98072.91
2022-11-22T08:37:45.141Z,98063.41
2022-11-22T08:39:43.167Z,98080.22
2022-11-22T08:41:41.222Z,98076.53
2022-11-22T08:43:39.367Z,98074.38
2022-11-22T08:45:37.395Z,98068.50
2022-11-22T08:47:35.422Z,98067.75
2022-11-22T08:49:33.638Z,98076.53
2022-11-22T08:51:31.858Z,98074.34
2022-11-22T08:53:30.932Z,98075.81
2022-11-22T08:55:29.057Z,98077.25
2022-11-22T08:57:27.166Z,98080.91
2022-11-22T08:59:25.308Z,98071.41
2022-11-22T09:01:23.660Z,98069.97
2022-11-22T09:03:22.137Z,98065.56
2022-11-22T09:05:20.157Z,98072.88
2022-11-22T09:09:37.720Z,98066.31
2022-11-22T09:11:35.933Z,98058.28
2022-11-22T09:13:33.984Z,98063.38
2022-11-22T09:15:32.157Z,98054.63
2022-11-22T09:17:30.361Z,98069.97
2022-11-22T09:19:28.571Z,98068.50
2022-11-22T09:21:26.809Z,98071.44
2022-11-22T09:23:24.816Z,98068.50
2022-11-22T09:25:23.033Z,98073.63
2022-11-22T09:27:21.217Z,98066.31
2022-11-22T09:29:19.191Z,98067.75
2022-11-22T09:31:17.193Z,98071.41
2022-11-22T09:33:15.278Z,98083.09
2022-11-22T09:35:13.277Z,98078.72
2022-11-22T09:37:11.523Z,98072.88
2022-11-22T09:39:09.573Z,98070.69
2022-11-22T09:41:07.703Z,98067.03
2022-11-22T09:43:05.874Z,98065.56
2022-11-22T09:45:04.086Z,98057.53
2022-11-22T09:47:02.131Z,98059.00
2022-11-22T09:49:00.418Z,98054.59
2022-11-22T09:50:58.455Z,98060.44
2022-11-22T09:52:56.527Z,98056.06
2022-11-22T09:54:54.562Z,98056.78
2022-11-22T09:56:52.547Z,98050.94
2022-11-22T09:58:51.867Z,98048.00
2022-11-22T10:00:52.386Z,98054.59
2022-11-22T10:03:05.590Z,98058.97
2022-11-22T10:05:03.723Z,98061.16
2022-11-22T10:07:01.765Z,98048.72
2022-11-22T10:09:00.117Z,98056.78
2022-11-22T10:10:58.492Z,98054.56
2022-11-22T10:12:56.530Z,98054.56
2022-11-22T10:14:54.576Z,98051.66
2022-11-22T10:16:52.608Z,98043.63
2022-11-22T10:18:50.593Z,98050.94
2022-11-22T10:20:49.112Z,98050.94
2022-11-22T10:22:47.191Z,98051.66
2022-11-22T10:24:45.406Z,98055.31
2022-11-22T10:26:43.724Z,98055.31
2022-11-22T10:28:41.736Z,98054.56
2022-11-22T10:30:39.977Z,98058.22
2022-11-22T10:32:37.942Z,98053.88
2022-11-22T10:34:35.978Z,98050.94
2022-11-22T10:36:34.070Z,98055.31
2022-11-22T10:38:32.257Z,98049.47
2022-11-22T10:40:30.288Z,98053.13
2022-11-22T10:42:28.499Z,98050.91
2022-11-22T10:44:26.489Z,98054.56
2022-11-22T10:46:24.549Z,98052.38
2022-11-22T10:48:22.607Z,98052.38
2022-11-22T10:50:20.738Z,98054.56
2022-11-22T10:52:18.727Z,98040.69
2022-11-22T10:54:16.737Z,98046.53
2022-11-22T10:56:15.064Z,98050.19
2022-11-22T10:58:13.085Z,98049.47
2022-11-22T11:00:11.132Z,98048.72
2022-11-22T11:02:09.193Z,98053.84
2022-11-22T11:04:07.243Z,98046.53
2022-11-22T11:08:47.819Z,98042.88
2022-11-22T11:10:41.788Z,98049.47
2022-11-22T11:12:39.970Z,98044.34
2022-11-22T11:14:38.180Z,98043.63
2022-11-22T11:16:36.326Z,98046.53
2022-11-22T11:18:34.401Z,98042.16
2022-11-22T11:20:32.496Z,98041.41
2022-11-22T11:23:06.345Z,98034.13
2022-11-22T11:24:51.513Z,98036.31
2022-11-22T11:26:49.612Z,98051.66
2022-11-22T11:28:47.643Z,98060.41
2022-11-22T11:30:45.800Z,98066.25
2022-11-22T11:32:44.087Z,98065.53
2022-11-22T11:34:42.178Z,98053.81
2022-11-22T11:36:40.295Z,98053.81
2022-11-22T11:38:38.351Z,98061.13
2022-11-22T11:40:36.376Z,98056.00
2022-11-22T11:42:34.431Z,98040.69
2022-11-22T11:44:33.834Z,98047.97
2022-11-22T11:46:31.954Z,98050.88
2022-11-22T11:48:30.012Z,98040.69
2022-11-22T11:50:28.057Z,98029.69
2022-11-22T11:52:28.734Z,98023.84
2022-11-22T11:54:27.533Z,98030.44
2022-11-22T11:56:25.626Z,98024.59
2022-11-22T11:58:23.859Z,98017.28
2022-11-22T12:00:25.067Z,98024.59
2022-11-22T12:02:23.180Z,98016.56
2022-11-22T12:04:21.276Z,98007.06
2022-11-22T12:06:19.258Z,98007.06
2022-11-22T12:08:17.313Z,98012.91
2022-11-22T12:10:15.366Z,98008.53
2022-11-22T12:12:13.379Z,98013.63
2022-11-22T12:14:19.917Z,98014.38
2022-11-22T12:16:18.802Z,98005.59
2022-11-22T12:18:16.848Z,98005.59
2022-11-22T12:20:14.946Z,98007.06
2022-11-22T12:22:24.235Z,98004.13
2022-11-22T12:25:03.120Z,98000.47
2022-11-22T12:26:48.964Z,98000.50
2022-11-22T12:28:47.427Z,98001.94
2022-11-22T12:30:45.449Z,98000.47
2022-11-22T12:32:43.777Z,97997.56
2022-11-22T12:34:41.879Z,98000.47
2022-11-22T12:36:40.079Z,97999.03
2022-11-22T12:38:38.119Z,97997.56
2022-11-22T12:40:36.169Z,97988.06
2022-11-22T12:42:34.257Z,97997.56
2022-11-22T12:44:32.626Z,97996.81
2022-11-22T12:46:31.014Z,97988.06
2022-11-22T12:48:29.198Z,97982.94
2022-11-22T12:50:27.394Z,97983.69
2022-11-22T12:52:25.719Z,97983.69
2022-11-22T12:54:23.690Z,97983.69
2022-11-22T12:56:21.954Z,97991.72
2022-11-22T12:58:20.207Z,97990.25
2022-11-22T13:00:19.589Z,97985.88
2022-11-22T13:02:17.608Z,97983.69
2022-11-22T13:04:15.595Z,97985.13
2022-11-22T13:06:13.661Z,97988.06
2022-11-22T13:08:11.883Z,97974.16
2022-11-22T13:10:10.252Z,97986.56
2022-11-22T13:12:08.427Z,97979.28
2022-11-22T13:14:06.509Z,97977.81
2022-11-22T13:16:04.640Z,97972.69
2022-11-22T14:01:13.479Z,98009.47
2022-11-22T14:03:11.744Z,98002.84
2022-11-22T14:05:09.838Z,98006.34
2022-11-22T14:07:07.894Z,98008.31
2022-11-22T14:09:05.896Z,97994.97
2022-11-22T14:11:03.952Z,97998.38
2022-11-22T14:13:01.961Z,98001.78
2022-11-22T14:14:59.979Z,98001.56
2022-11-22T14:16:57.942Z,97994.00
2022-11-22T14:18:55.952Z,98008.53
2022-11-22T14:20:54.125Z,98005.41
2022-11-22T14:22:52.195Z,98011.19
2022-11-22T14:24:50.445Z,98011.13
2022-11-22T14:26:48.533Z,98019.88
2022-11-22T14:28:46.546Z,98017.63
2022-11-22T14:30:44.783Z,98016.16
2022-11-22T14:32:42.885Z,98019.81
2022-11-22T14:34:40.933Z,98022.78
2022-11-22T14:36:39.142Z,98027.19
2022-11-22T14:38:38.952Z,98024.28
2022-11-22T14:40:37.025Z,98022.91
2022-11-22T14:42:35.016Z,98015.59
2022-11-22T14:44:33.055Z,98017.09
2022-11-22T14:46:52.235Z,98026.66
2022-11-22T14:48:49.000Z,98028.91
2022-11-22T14:50:48.336Z,98023.81
2022-11-22T14:52:46.357Z,98027.53
2022-11-22T14:54:44.599Z,98030.50
2022-11-22T14:56:42.677Z,98023.94
2022-11-22T14:58:40.690Z,98027.66
2022-11-22T15:00:38.714Z,98032.81
2022-11-22T15:02:36.741Z,98038.72
2022-11-22T15:09:10.685Z,98041.00
2022-11-22T15:09:20.799Z,98036.56
2022-11-22T15:09:40.665Z,98034.44
2022-11-22T15:11:30.137Z,98056.47
2022-11-22T15:13:28.128Z,98021.66
2022-11-22T15:59:10.012Z,98112.53
2022-11-22T16:01:19.440Z,98115.50
2022-11-22T16:03:18.259Z,98116.22
2022-11-22T16:06:06.705Z,98117.72
2022-11-22T16:07:34.439Z,98123.56
2022-11-22T16:09:33.215Z,98123.59
2022-11-22T16:11:31.517Z,98128.72
2022-11-22T16:13:29.525Z,98123.63
2022-11-22T16:15:27.734Z,98128.72
2022-11-22T16:17:26.116Z,98139.00
2022-11-22T16:19:24.512Z,98139.72
2022-11-22T16:21:22.554Z,98146.34
2022-11-22T16:23:21.711Z,98135.38
2022-11-22T16:25:20.181Z,98144.19
2022-11-22T16:27:18.399Z,98152.97
2022-11-22T16:29:16.463Z,98155.19
2022-11-22T16:31:14.495Z,98155.19
2022-11-22T16:33:12.544Z,98160.31
2022-11-22T16:35:28.546Z,98174.25
2022-11-22T16:37:28.956Z,98175.69
2022-11-22T16:39:29.169Z,98174.97
2022-11-22T16:41:27.436Z,98175.75
2022-11-22T16:43:25.404Z,98164.75
2022-11-22T16:45:23.594Z,98163.31
2022-11-22T16:47:21.645Z,98162.59
2022-11-22T16:49:19.977Z,98159.69
2022-11-22T16:51:18.054Z,98172.84
2022-11-22T16:53:16.144Z,98172.84
2022-11-22T16:55:14.166Z,98164.06
2022-11-22T16:57:12.540Z,98162.63
2022-11-22T16:59:12.654Z,98156.78
2022-11-22T17:01:10.971Z,98156.06
2022-11-22T17:03:09.134Z,98158.28
2022-11-22T17:05:07.235Z,98153.16
2022-11-22T17:07:05.532Z,98158.28
2022-11-22T17:09:03.548Z,98157.53
2022-11-22T17:11:01.540Z,98166.34
2022-11-22T17:12:59.559Z,98166.31
2022-11-22T17:14:57.737Z,98169.25
2022-11-22T17:16:55.798Z,98174.41
2022-11-22T17:18:54.192Z,98174.38
2022-11-22T17:20:52.219Z,98199.97
2022-11-22T17:22:50.309Z,98193.41
2022-11-22T17:24:48.333Z,98191.22
2022-11-22T17:26:46.428Z,98200.72
2022-11-22T17:28:44.718Z,98200.00
2022-11-22T17:30:42.749Z,98200.00
2022-11-22T17:32:40.988Z,98210.22
2022-11-22T17:34:39.454Z,98202.19
2022-11-22T17:36:37.555Z,98205.13
2022-11-22T17:38:35.792Z,98213.16
2022-11-22T17:40:34.082Z,98206.59
2022-11-22T17:42:34.528Z,98220.47
2022-11-22T17:44:36.162Z,98215.38
2022-11-22T17:46:34.192Z,98213.16
2022-11-22T17:48:32.401Z,98213.19
2022-11-22T17:50:30.633Z,98213.16
2022-11-22T17:52:28.725Z,98221.19
2022-11-22T17:54:26.752Z,98214.63
2022-11-22T17:56:24.797Z,98224.13
2022-11-22T17:58:22.997Z,98226.34
2022-11-22T18:00:24.285Z,98219.75
2022-11-22T18:02:26.702Z,98232.91
2022-11-22T18:04:24.921Z,98229.25
2022-11-22T18:06:22.981Z,98231.44
2022-11-22T18:08:21.222Z,98230.69
2022-11-22T18:10:19.280Z,98227.78
2022-11-22T18:12:17.382Z,98235.84
2022-11-22T18:14:15.404Z,98232.91
2022-11-22T18:16:14.183Z,98234.34
2022-11-22T18:18:33.332Z,98235.09
2022-11-22T18:20:30.208Z,98234.34
2022-11-22T18:22:28.215Z,98235.84
2022-11-22T18:24:26.281Z,98230.00
2022-11-22T18:26:39.249Z,98233.63
2022-11-22T18:28:39.392Z,98226.31
2022-11-22T18:30:37.414Z,98235.84
2022-11-22T18:32:35.440Z,98229.25
2022-11-22T18:34:33.528Z,98224.16
2022-11-22T18:36:54.731Z,98229.97
2022-11-22T18:38:54.632Z,98229.97
2022-11-22T18:40:53.798Z,98232.16
2022-11-22T18:42:51.789Z,98237.28
2022-11-22T18:44:49.995Z,98236.53
2022-11-22T18:46:48.034Z,98236.53
2022-11-22T18:48:46.236Z,98240.94
2022-11-22T18:50:44.815Z,98236.56
2022-11-22T18:52:44.274Z,98244.59
2022-11-22T18:54:42.819Z,98249.69
2022-11-22T18:56:41.224Z,98250.41
2022-11-22T18:58:39.293Z,98255.50
2022-11-22T19:00:37.519Z,98251.13
2022-11-22T19:02:35.558Z,98247.47
2022-11-22T19:04:34.017Z,98254.03
2022-11-22T19:06:32.307Z,98261.34
2022-11-22T19:08:30.561Z,98257.69
2022-11-22T19:10:28.586Z,98250.38
2022-11-22T19:12:26.911Z,98262.06
2022-11-22T19:14:25.007Z,98259.16
2022-11-22T19:16:23.272Z,98258.44
2022-11-22T19:18:21.282Z,98259.88
2022-11-22T19:20:47.258Z,98262.78
2022-11-22T19:22:37.567Z,98260.59
2022-11-22T19:24:35.530Z,98256.97
2022-11-22T19:26:33.808Z,98260.63
2022-11-22T19:28:32.022Z,98266.44
2022-11-22T19:30:30.041Z,98259.88
2022-11-22T19:32:28.050Z,98269.38
2022-11-22T19:34:26.255Z,98267.19
2022-11-22T19:36:27.917Z,98260.59
2022-11-22T19:38:30.541Z,98260.63
2022-11-22T19:40:28.558Z,98259.16
2022-11-22T19:42:26.985Z,98267.19
2022-11-22T19:44:25.257Z,98269.38
2022-11-22T19:46:23.318Z,98264.25
2022-11-22T19:48:21.344Z,98267.19
2022-11-22T19:50:21.026Z,98261.34
2022-11-22T19:52:19.097Z,98262.06
2022-11-22T19:54:17.128Z,98265.72
2022-11-22T19:56:15.205Z,98256.22
2022-11-22T19:58:13.211Z,98259.88
2022-11-22T20:00:11.692Z,98270.09
2022-11-22T20:02:09.997Z,98251.88
2022-11-22T20:04:08.275Z,98265.72
2022-11-22T20:06:06.259Z,98275.94
2022-11-22T20:08:04.231Z,98273.75
2022-11-22T20:10:04.170Z,98270.09
2022-11-22T20:12:02.210Z,98270.81
2022-11-22T20:14:00.208Z,98278.88
2022-11-22T20:15:58.312Z,98281.06
2022-11-22T20:17:56.314Z,98283.25
2022-11-22T20:19:54.327Z,98279.59
2022-11-22T20:21:52.359Z,98290.56
2022-11-22T20:23:50.493Z,98294.19
2022-11-22T20:25:48.624Z,98292.00
2022-11-22T20:27:46.895Z,98294.94
2022-11-22T20:29:44.911Z,98293.47
2022-11-22T20:31:43.035Z,98300.03
2022-11-22T20:33:41.104Z,98292.72
2022-11-22T20:35:39.996Z,98295.66
2022-11-22T20:37:38.037Z,98294.19
2022-11-22T20:39:37.461Z,98299.31
2022-11-22T20:41:35.470Z,98297.13
2022-11-22T20:43:33.831Z,98294.91
2022-11-22T20:45:32.539Z,98297.13
2022-11-22T20:47:30.570Z,98308.06
2022-11-22T20:49:30.729Z,98300.75
2022-11-22T20:51:28.765Z,98301.47
2022-11-22T20:53:26.800Z,98300.75
2022-11-22T20:55:24.790Z,98306.59
2022-11-22T20:57:23.265Z,98301.47
2022-11-22T20:59:21.327Z,98304.41
2022-11-22T21:01:19.480Z,98307.31
2022-11-22T21:03:17.540Z,98305.13
2022-11-22T21:05:15.768Z,98307.31
2022-11-22T21:07:13.907Z,98317.56
2022-11-22T21:09:12.136Z,98312.44
2022-11-22T21:11:10.178Z,98326.31
2022-11-22T21:13:08.279Z,98319.75
2022-11-22T21:15:06.633Z,98324.13
2022-11-22T21:17:30.541Z,98325.56
2022-11-22T21:19:22.638Z,98325.56
2022-11-22T21:21:23.066Z,98326.31
2022-11-22T21:23:21.308Z,98320.47
2022-11-22T21:25:19.331Z,98327.75
2022-11-22T21:27:17.567Z,98327.03
2022-11-22T21:29:16.658Z,98326.28
2022-11-22T21:31:14.997Z,98330.66
2022-11-22T21:33:13.056Z,98324.81
2022-11-22T21:35:11.130Z,98335.06
2022-11-22T21:37:09.202Z,98332.88
2022-11-22T21:39:07.201Z,98329.94
2022-11-22T21:41:24.284Z,98332.84
2022-11-22T21:43:23.326Z,98332.13
2022-11-22T21:45:21.440Z,98329.94
2022-11-22T21:47:20.571Z,98327.75
2022-11-22T21:49:18.629Z,98325.56
2022-11-22T21:51:16.921Z,98328.47
2022-11-22T21:53:15.091Z,98332.13
2022-11-22T21:55:13.174Z,98333.59
2022-11-22T21:57:11.222Z,98338.72
2022-11-22T21:59:09.250Z,98334.31
2022-11-22T22:01:12.508Z,98335.81
2022-11-22T22:03:12.069Z,98332.16
2022-11-22T22:05:11.397Z,98332.16
2022-11-22T22:07:29.796Z,98334.34
2022-11-22T22:09:27.443Z,98348.94
2022-11-22T22:11:25.503Z,98349.69
2022-11-22T22:13:23.528Z,98347.47
2022-11-22T22:15:21.800Z,98344.56
2022-11-22T22:17:19.869Z,98342.38
2022-11-22T22:19:17.931Z,98345.28
2022-11-22T22:21:15.998Z,98343.84
2022-11-22T22:23:15.377Z,98346.03
2022-11-22T22:25:13.632Z,98340.94
2022-11-22T22:27:11.674Z,98346.75
2022-11-22T22:29:09.640Z,98358.44
2022-11-22T22:31:08.175Z,98358.44
2022-11-22T22:33:06.159Z,98366.44
2022-11-22T22:35:04.242Z,98366.44
2022-11-22T22:37:02.634Z,98359.16
2022-11-22T22:39:00.934Z,98363.53
2022-11-22T22:40:58.955Z,98368.63
2022-11-22T22:42:57.039Z,98353.31
2022-11-22T22:44:55.102Z,98363.50
2022-11-22T22:46:53.382Z,98363.50
2022-11-22T22:48:51.888Z,98365.00
2022-11-22T22:50:50.069Z,98362.78
2022-11-22T22:52:48.133Z,98374.47
2022-11-22T22:54:46.214Z,98372.28
2022-11-22T22:56:44.698Z,98375.19
2022-11-22T22:58:42.698Z,98380.31
2022-11-22T23:00:40.737Z,98373.00
2022-11-22T23:02:38.881Z,98365.72
2022-11-22T23:04:37.480Z,98364.22
2022-11-22T23:06:35.505Z,98361.31
2022-11-22T23:08:33.466Z,98356.94
2022-11-22T23:10:31.704Z,98349.66
2022-11-22T23:12:29.691Z,98368.63
2022-11-22T23:14:27.815Z,98368.63
2022-11-22T23:16:26.030Z,98373.75
2022-11-22T23:18:24.097Z,98382.50
2022-11-22T23:20:22.134Z,98379.56
2022-11-22T23:22:25.656Z,98381.75
2022-11-22T23:24:24.155Z,98378.81
2022-11-22T23:26:22.284Z,98375.91
2022-11-22T23:28:20.472Z,98369.34
2022-11-22T23:30:18.563Z,98370.06
2022-11-22T23:32:16.774Z,98375.16
2022-11-22T23:34:14.894Z,98372.25
2022-11-22T23:36:12.957Z,98375.16
2022-11-22T23:38:11.169Z,98367.84
2022-11-22T23:40:09.209Z,98370.78
2022-11-22T23:42:07.263Z,98364.22
2022-11-22T23:44:05.363Z,98366.38
2022-11-22T23:46:03.381Z,98363.47
2022-11-22T23:48:01.624Z,98367.84
2022-11-22T23:49:59.644Z,98362.00
2022-11-22T23:51:57.692Z,98366.41
2022-11-22T23:53:56.020Z,98364.94
2022-11-22T23:55:54.077Z,98364.94
2022-11-22T23:57:52.491Z,98363.47
2022-11-22T23:59:50.507Z,98367.13
